Time;durP1;ratioP1;P1;durP2;ratioP2;P2;SDS_P1;SDS_P2;PMS_P1;PMS_P2;Temp;Humidity;BMP_temperature;BMP_pressure;BME280_temperature;BME280_humidity;BME280_pressure;Samples;Min_cycle;Max_cycle;Signal;HPM_P1;HPM_P2
2022/07/01 00:02:02;;;;;;;4.60;2.92;;;;;;;26.85;45.76;100586.20;1737352;81;21039;-81
2022/07/01 00:04:28;;;;;;;3.83;2.70;;;;;;;26.84;45.77;100580.36;1729560;82;21377;-81
2022/07/01 00:06:55;;;;;;;3.42;2.90;;;;;;;26.84;45.79;100583.16;1721090;83;21693;-82
2022/07/01 00:09:23;;;;;;;3.65;2.98;;;;;;;26.84;45.79;100591.53;1721555;83;21479;-82
2022/07/01 00:11:50;;;;;;;5.60;3.22;;;;;;;26.85;45.82;100594.58;1721398;83;21052;-81
2022/07/01 00:14:16;;;;;;;3.27;2.98;;;;;;;26.83;45.84;100587.92;1721007;83;20977;-81
2022/07/01 00:16:42;;;;;;;3.42;3.10;;;;;;;26.83;45.87;100587.92;1721509;82;21056;-81
2022/07/01 00:19:09;;;;;;;3.75;2.58;;;;;;;26.83;45.88;100585.72;1720814;83;21092;-81
2022/07/01 00:21:36;;;;;;;3.87;3.00;;;;;;;26.84;45.89;100581.76;1721516;83;21077;-81
2022/07/01 00:24:03;;;;;;;3.87;3.05;;;;;;;26.83;45.90;100578.16;1720877;83;21004;-81
2022/07/01 00:26:29;;;;;;;3.22;2.50;;;;;;;26.82;45.91;100572.92;1721277;82;21527;-81
2022/07/01 00:29:01;;;;;;;3.22;2.80;;;;;;;26.83;45.94;100576.77;1721210;83;21678;-81
2022/07/01 00:31:28;;;;;;;3.90;2.90;;;;;;;26.83;45.94;100582.92;1720826;82;22113;-81
2022/07/01 00:33:54;;;;;;;4.37;3.05;;;;;;;26.82;45.93;100580.72;1720946;83;21053;-81
2022/07/01 00:36:21;;;;;;;3.90;2.92;;;;;;;26.82;45.97;100577.92;1721052;83;21069;-81
2022/07/01 00:38:47;;;;;;;3.27;2.92;;;;;;;26.82;45.99;100579.91;1721346;83;21053;-81
2022/07/01 00:41:20;;;;;;;3.20;2.83;;;;;;;26.81;46.02;100576.33;1720621;83;21571;-81
2022/07/01 00:43:46;;;;;;;3.83;3.37;;;;;;;26.81;46.02;100572.14;1721414;82;21941;-81
2022/07/01 00:46:13;;;;;;;4.53;2.98;;;;;;;26.81;46.04;100572.73;1721375;82;21045;-81
2022/07/01 00:48:39;;;;;;;3.33;2.92;;;;;;;26.81;46.08;100574.94;1720592;83;21115;-81
2022/07/01 00:51:06;;;;;;;3.47;3.02;;;;;;;26.81;46.09;100572.14;1721900;82;21571;-81
2022/07/01 00:53:32;;;;;;;4.60;2.62;;;;;;;26.81;46.11;100570.75;1723049;83;21562;-81
2022/07/01 00:55:59;;;;;;;3.80;2.83;;;;;;;26.81;46.12;100567.14;1722610;82;21910;-81
2022/07/01 00:58:28;;;;;;;3.30;2.90;;;;;;;26.80;46.13;100566.34;1722830;83;21084;-81
2022/07/01 01:00:56;;;;;;;2.80;2.55;;;;;;;26.80;46.16;100564.12;1723054;83;21080;-81
2022/07/01 01:03:23;;;;;;;3.45;2.90;;;;;;;26.79;46.12;100557.73;1722583;83;21108;-82
2022/07/01 01:05:50;;;;;;;2.95;2.60;;;;;;;26.80;46.13;100564.12;1722972;83;21504;-81
2022/07/01 01:08:16;;;;;;;3.60;2.80;;;;;;;26.80;46.17;100562.15;1722857;82;21025;-81
2022/07/01 01:10:43;;;;;;;3.05;2.72;;;;;;;26.79;46.18;100553.55;1723997;82;21047;-81
2022/07/01 01:13:09;;;;;;;4.00;2.90;;;;;;;26.80;46.19;100553.77;1722908;83;21535;-81
2022/07/01 01:15:37;;;;;;;3.65;2.90;;;;;;;26.79;46.22;100550.75;1723113;83;21107;-81
2022/07/01 01:18:03;;;;;;;4.17;3.33;;;;;;;26.79;46.23;100563.31;1722694;83;21128;-81
2022/07/01 01:20:38;;;;;;;3.92;2.77;;;;;;;26.79;46.26;100558.31;1722865;83;21144;-81
2022/07/01 01:23:05;;;;;;;3.98;3.10;;;;;;;26.78;46.27;100553.31;1722973;82;21109;-82
2022/07/01 01:25:33;;;;;;;4.58;3.27;;;;;;;26.79;46.26;100552.73;1722674;83;20983;-81
2022/07/01 01:28:02;;;;;;;5.25;3.17;;;;;;;26.79;46.29;100549.94;1722589;83;21592;-81
2022/07/01 01:30:28;;;;;;;3.30;2.83;;;;;;;26.78;46.30;100547.73;1722543;83;21050;-81
2022/07/01 01:32:54;;;;;;;3.22;2.92;;;;;;;26.79;46.31;100547.15;1722762;83;21501;-81
2022/07/01 01:35:21;;;;;;;4.55;3.15;;;;;;;26.78;46.32;100556.11;1723010;83;21093;-81
2022/07/01 01:37:48;;;;;;;3.62;3.02;;;;;;;26.78;46.36;100553.31;1722915;83;21141;-81
2022/07/01 01:40:15;;;;;;;3.40;2.65;;;;;;;26.78;46.37;100553.91;1722707;83;21090;-81
2022/07/01 01:42:42;;;;;;;3.77;3.10;;;;;;;26.78;46.38;100556.69;1723085;83;21429;-81
2022/07/01 01:45:10;;;;;;;4.42;2.77;;;;;;;26.78;46.39;100558.09;1723229;82;21313;-80
2022/07/01 01:47:36;;;;;;;3.20;2.58;;;;;;;26.78;46.44;100559.48;1722637;82;21085;-80
2022/07/01 01:50:05;;;;;;;3.72;2.77;;;;;;;26.77;46.47;100558.70;1723025;82;21588;-80
2022/07/01 01:52:32;;;;;;;3.45;2.70;;;;;;;26.78;46.45;100559.48;1721147;83;21449;-81
2022/07/01 01:55:00;;;;;;;4.80;3.10;;;;;;;26.77;46.46;100561.49;1721288;82;21099;-81
2022/07/01 01:57:26;;;;;;;3.33;2.83;;;;;;;26.77;46.49;100562.89;1721408;82;21233;-82
2022/07/01 01:59:58;;;;;;;4.08;3.35;;;;;;;26.78;46.50;100563.67;1721036;83;21257;-82
2022/07/01 02:02:25;;;;;;;3.77;2.85;;;;;;;26.76;46.52;100554.28;1721150;83;21094;-81
2022/07/01 02:04:51;;;;;;;5.00;2.92;;;;;;;26.77;46.53;100561.49;1721148;83;21485;-81
2022/07/01 02:07:18;;;;;;;3.65;2.98;;;;;;;26.77;46.54;100560.68;1721441;82;21066;-81
2022/07/01 02:09:44;;;;;;;3.72;3.22;;;;;;;26.76;46.57;100557.08;1721384;83;21100;-81
2022/07/01 02:12:11;;;;;;;3.00;2.62;;;;;;;26.77;46.58;100557.89;1721414;83;21568;-81
2022/07/01 02:14:37;;;;;;;5.37;3.12;;;;;;;26.76;46.58;100557.66;1721480;83;21090;-81
2022/07/01 02:17:04;;;;;;;4.25;3.00;;;;;;;26.76;46.62;100555.68;1721129;83;21564;-81
2022/07/01 02:19:30;;;;;;;4.28;3.20;;;;;;;26.77;46.64;100545.33;1721462;83;21027;-81
2022/07/01 02:21:57;;;;;;;3.90;3.27;;;;;;;26.76;46.63;100552.89;1721442;83;21074;-81
2022/07/01 02:24:23;;;;;;;4.53;2.92;;;;;;;26.77;46.65;100559.28;1721157;83;21012;-81
2022/07/01 02:26:50;;;;;;;4.35;3.27;;;;;;;26.76;46.66;100558.47;1721323;83;21631;-81
2022/07/01 02:29:16;;;;;;;3.50;2.90;;;;;;;26.76;46.70;100563.24;1693739;84;21106;-81
2022/07/01 02:31:43;;;;;;;3.77;3.20;;;;;;;26.76;46.70;100559.87;1735123;82;21108;-81
2022/07/01 02:34:09;;;;;;;3.70;3.05;;;;;;;26.76;46.70;100564.64;1740503;82;21157;-81
2022/07/01 02:36:36;;;;;;;4.70;4.20;;;;;;;26.75;46.71;100557.43;1710413;83;21634;-81
2022/07/01 02:39:02;;;;;;;3.70;2.95;;;;;;;26.75;46.72;100563.02;1740290;82;21012;-81
2022/07/01 02:41:29;;;;;;;3.30;3.02;;;;;;;26.75;46.75;100562.43;1740243;82;21013;-81
2022/07/01 02:43:55;;;;;;;3.40;3.10;;;;;;;26.75;46.78;100561.03;1740421;81;21041;-81
2022/07/01 02:46:22;;;;;;;3.30;3.00;;;;;;;26.75;46.77;100558.24;1740229;82;21185;-81
2022/07/01 02:48:48;;;;;;;3.42;2.80;;;;;;;26.75;46.79;100561.62;1740461;82;21009;-81
2022/07/01 02:51:21;;;;;;;4.60;3.15;;;;;;;26.76;46.80;100559.05;1743390;82;21784;-81
2022/07/01 02:53:47;;;;;;;3.45;2.90;;;;;;;26.75;46.83;100567.20;1750762;82;20909;-81
2022/07/01 02:56:14;;;;;;;4.40;2.80;;;;;;;26.75;46.83;100568.59;1751075;82;21041;-81
2022/07/01 02:58:40;;;;;;;4.85;3.20;;;;;;;26.75;46.86;100572.78;1751008;82;21068;-81
2022/07/01 03:01:07;;;;;;;3.90;3.10;;;;;;;26.75;46.86;100576.39;1750580;82;21044;-81
2022/07/01 03:03:33;;;;;;;3.52;3.00;;;;;;;26.75;46.88;100579.76;1750950;82;21583;-81
2022/07/01 03:06:00;;;;;;;3.45;3.15;;;;;;;26.76;46.91;100588.36;1750955;82;21374;-81
2022/07/01 03:08:26;;;;;;;4.33;3.00;;;;;;;26.75;46.93;100583.36;1735019;82;21125;-81
2022/07/01 03:10:53;;;;;;;3.22;2.92;;;;;;;26.75;46.92;100590.92;1721143;83;21774;-81
2022/07/01 03:13:19;;;;;;;3.37;3.08;;;;;;;26.75;46.95;100592.31;1720805;82;21039;-81
2022/07/01 03:15:46;;;;;;;3.65;3.02;;;;;;;26.75;47.00;100596.51;1720857;83;21058;-81
2022/07/01 03:18:13;;;;;;;4.33;3.17;;;;;;;26.75;46.98;100603.48;1721159;82;21054;-81
2022/07/01 03:20:39;;;;;;;3.98;3.45;;;;;;;26.74;46.99;100604.06;1721072;83;21019;-81
2022/07/01 03:23:06;;;;;;;3.42;3.10;;;;;;;26.75;47.03;100610.46;1720847;83;21123;-81
2022/07/01 03:25:32;;;;;;;3.72;3.15;;;;;;;26.75;47.03;100603.48;1721030;83;21042;-81
2022/07/01 03:27:59;;;;;;;3.67;2.75;;;;;;;26.75;47.05;100607.67;1721044;83;21127;-81
2022/07/01 03:30:25;;;;;;;3.77;3.37;;;;;;;26.75;47.06;100614.65;1720814;83;21126;-81
2022/07/01 03:32:52;;;;;;;4.08;3.00;;;;;;;26.74;47.09;100617.20;1721085;83;21085;-81
2022/07/01 03:35:39;;;;;;;3.80;3.02;;;;;;;26.74;47.09;100618.60;1721146;83;21576;-81
2022/07/01 03:38:05;;;;;;;4.08;3.30;;;;;;;26.74;47.11;100619.42;1720643;83;21893;-81
2022/07/01 03:40:38;;;;;;;3.50;3.20;;;;;;;26.74;47.12;100620.81;1720792;83;21042;-81
2022/07/01 03:43:04;;;;;;;3.37;3.08;;;;;;;26.75;47.13;100625.81;1721017;83;21094;-82
2022/07/01 03:45:31;;;;;;;3.62;2.98;;;;;;;26.74;47.16;100622.79;1720605;83;21015;-81
2022/07/01 03:47:58;;;;;;;3.92;2.95;;;;;;;26.74;47.17;100628.38;1721048;82;21075;-81
2022/07/01 03:50:25;;;;;;;3.92;2.98;;;;;;;26.74;47.19;100625.58;1721133;83;21222;-81
2022/07/01 03:55:36;;;;;;;5.45;3.00;;;;;;;26.75;47.23;100632.79;1720707;83;21058;-81
2022/07/01 03:58:03;;;;;;;3.95;3.55;;;;;;;26.74;47.24;100631.16;1720821;83;21031;-81
2022/07/01 04:00:33;;;;;;;4.42;3.05;;;;;;;26.74;47.25;100629.77;1721086;83;21034;-81
2022/07/01 04:03:00;;;;;;;3.67;3.30;;;;;;;26.73;47.26;100633.14;1721119;83;21569;-81
2022/07/01 04:05:26;;;;;;;3.83;3.12;;;;;;;26.73;47.29;100637.94;1720616;83;21433;-81
2022/07/01 04:07:53;;;;;;;4.47;3.47;;;;;;;26.74;47.31;100638.14;1721108;83;21054;-81
2022/07/01 04:10:20;;;;;;;4.65;3.25;;;;;;;26.74;47.32;100644.53;1721280;83;21098;-81
2022/07/01 04:12:46;;;;;;;3.72;3.10;;;;;;;26.74;47.32;100642.33;1721353;83;21723;-81
2022/07/01 04:15:13;;;;;;;4.90;3.30;;;;;;;26.74;47.34;100652.91;1692220;83;21050;-81
2022/07/01 04:17:40;;;;;;;4.67;3.50;;;;;;;26.74;47.37;100640.93;1721053;83;21038;-81
2022/07/01 04:20:07;;;;;;;3.58;3.00;;;;;;;26.73;47.35;100642.91;1720828;83;21055;-81
2022/07/01 04:22:35;;;;;;;5.42;3.33;;;;;;;26.74;47.35;100640.93;1721283;83;21030;-81
2022/07/01 04:25:03;;;;;;;4.70;3.20;;;;;;;26.73;47.38;100641.52;1721250;83;22214;-81
2022/07/01 04:27:31;;;;;;;3.87;3.47;;;;;;;26.73;47.41;100644.30;1720889;83;21635;-81
2022/07/01 04:29:57;;;;;;;4.95;3.52;;;;;;;26.74;47.42;100640.34;1721164;83;21058;-81
2022/07/01 04:32:24;;;;;;;3.50;3.20;;;;;;;26.75;47.46;100643.37;1721207;83;21056;-81
2022/07/01 04:34:51;;;;;;;6.58;3.17;;;;;;;26.74;47.47;100648.72;1721009;83;21031;-81
2022/07/01 04:37:17;;;;;;;4.45;3.33;;;;;;;26.75;47.48;100649.53;1721242;83;20994;-81
2022/07/01 04:39:44;;;;;;;4.80;4.22;;;;;;;26.75;47.53;100650.93;1721143;83;21113;-81
2022/07/01 04:42:10;;;;;;;4.65;3.30;;;;;;;26.74;47.68;100652.09;1720998;83;21055;-81
2022/07/01 04:44:37;;;;;;;4.53;4.10;;;;;;;26.72;47.77;100647.48;1721807;81;21079;-81
2022/07/01 04:47:04;;;;;;;7.37;4.67;;;;;;;26.70;47.90;100653.41;1720507;82;21074;-80
2022/07/01 04:49:36;;;;;;;6.28;3.83;;;;;;;26.68;48.04;100646.59;1720104;83;21005;-81
2022/07/01 04:52:03;;;;;;;9.08;4.65;;;;;;;26.65;48.18;100643.92;1719759;83;21610;-81
2022/07/01 04:54:30;;;;;;;8.75;4.83;;;;;;;26.63;48.39;100640.70;1719012;83;21551;-81
2022/07/01 04:56:56;;;;;;;10.03;5.95;;;;;;;26.60;48.58;100641.43;1718860;82;21053;-81
2022/07/01 04:59:23;;;;;;;6.55;4.37;;;;;;;26.58;48.76;100643.77;1694464;83;21077;-80
2022/07/01 05:01:49;;;;;;;8.88;5.83;;;;;;;26.58;48.86;100642.95;1719387;82;21014;-80
2022/07/01 05:04:18;;;;;;;10.82;5.47;;;;;;;26.56;49.23;100646.12;1719221;83;21018;-81
2022/07/01 05:06:45;;;;;;;10.05;5.50;;;;;;;26.51;49.47;100649.76;1719349;83;21108;-80
2022/07/01 05:09:11;;;;;;;7.33;5.83;;;;;;;26.48;49.73;100650.49;1719486;83;21540;-80
2022/07/01 05:11:38;;;;;;;7.28;5.37;;;;;;;26.43;49.96;100649.36;1724850;82;21471;-81
2022/07/01 05:14:06;;;;;;;8.05;5.80;;;;;;;26.40;50.14;100664.02;1672838;84;21106;-81
2022/07/01 05:16:33;;;;;;;11.85;5.87;;;;;;;26.39;50.27;100670.20;1719047;83;21031;-80
2022/07/01 05:21:58;;;;;;;11.18;6.08;;;;;;;26.31;50.71;100662.22;1718886;83;21164;-80
2022/07/01 05:24:30;;;;;;;9.43;6.17;;;;;;;26.28;50.93;100661.55;1719003;82;21114;-80
2022/07/01 05:26:56;;;;;;;9.45;6.33;;;;;;;26.25;51.08;100663.67;1721050;82;22712;-80
2022/07/01 05:29:23;;;;;;;9.58;5.50;;;;;;;26.25;51.24;100662.86;1718724;83;21125;-81
2022/07/01 05:31:49;;;;;;;11.08;5.58;;;;;;;26.24;51.31;100669.02;1739656;82;21052;-81
2022/07/01 05:34:16;;;;;;;9.00;6.30;;;;;;;26.25;51.37;100667.05;1748792;82;21571;-80
2022/07/01 05:36:48;;;;;;;9.20;5.87;;;;;;;26.23;51.45;100658.21;1697229;82;21664;-81
2022/07/01 05:39:15;;;;;;;12.47;6.05;;;;;;;26.23;51.54;100654.03;1718140;82;21127;-80
2022/07/01 05:41:41;;;;;;;13.48;6.20;;;;;;;26.22;51.62;100656.62;1718019;83;21067;-81
2022/07/01 05:44:08;;;;;;;7.97;5.50;;;;;;;26.18;51.71;100650.89;1727002;82;21531;-81
2022/07/01 05:46:34;;;;;;;6.58;5.20;;;;;;;26.18;51.77;100653.67;1735120;81;21093;-80
2022/07/01 05:49:01;;;;;;;7.15;5.30;;;;;;;26.19;51.80;100660.88;1718893;82;21065;-80
2022/07/01 05:51:30;;;;;;;8.93;5.33;;;;;;;26.20;51.77;100665.91;1718403;83;21100;-80
2022/07/01 05:53:57;;;;;;;8.90;4.87;;;;;;;26.18;51.80;100667.63;1736798;82;21088;-80
2022/07/01 05:56:25;;;;;;;6.35;5.17;;;;;;;26.19;51.82;100679.01;1734431;81;21589;-79
2022/07/01 05:58:53;;;;;;;7.30;5.62;;;;;;;26.20;51.88;100672.88;1705815;83;21143;-80
2022/07/01 06:01:19;;;;;;;8.35;5.53;;;;;;;26.20;51.91;100677.87;1703245;83;21141;-80
2022/07/01 06:03:47;;;;;;;8.78;5.22;;;;;;;26.20;51.91;100682.64;1699860;83;21067;-80
2022/07/01 06:06:14;;;;;;;9.63;5.28;;;;;;;26.20;51.91;100684.84;1707215;83;21041;-79
2022/07/01 06:08:40;;;;;;;10.13;5.37;;;;;;;26.20;51.91;100686.25;1715265;83;21048;-80
2022/07/01 06:11:07;;;;;;;8.48;5.35;;;;;;;26.19;51.96;100683.19;1722500;82;21063;-80
2022/07/01 06:13:33;;;;;;;8.23;5.42;;;;;;;26.20;52.04;100682.06;1676901;83;21052;-80
2022/07/01 06:16:00;;;;;;;10.03;4.97;;;;;;;26.21;52.09;100681.48;1708697;83;21204;-80
2022/07/01 06:18:26;;;;;;;13.65;5.35;;;;;;;26.22;52.15;100680.31;1716762;83;21028;-80
2022/07/01 06:20:53;;;;;;;13.62;5.33;;;;;;;26.22;52.13;100676.95;1711466;82;21074;-80
2022/07/01 06:23:19;;;;;;;9.50;5.42;;;;;;;26.21;52.12;100683.69;1706468;83;21187;-80
2022/07/01 06:25:46;;;;;;;9.28;5.12;;;;;;;26.23;52.10;100681.91;1717327;82;21082;-78
2022/07/01 06:28:13;;;;;;;9.83;5.45;;;;;;;26.23;52.07;100680.52;1711279;83;21677;-79
2022/07/01 06:30:43;;;;;;;9.40;5.00;;;;;;;26.24;52.03;100687.73;1694185;83;21530;-80
2022/07/01 06:33:08;;;;;;;10.90;5.25;;;;;;;26.25;52.00;100692.95;1714245;82;21252;-80
2022/07/01 06:35:35;;;;;;;10.30;5.50;;;;;;;26.28;51.99;100696.99;1723943;82;21041;-80
2022/07/01 06:38:01;;;;;;;9.95;5.08;;;;;;;26.28;52.00;100699.20;1723500;82;21693;-81
2022/07/01 06:40:29;;;;;;;8.93;4.55;;;;;;;26.30;52.01;100701.06;1721877;82;21126;-81
2022/07/01 06:42:56;;;;;;;8.65;4.78;;;;;;;26.31;51.96;100699.88;1737795;82;21418;-80
2022/07/01 06:45:22;;;;;;;9.05;4.60;;;;;;;26.32;51.98;100702.89;1730850;82;21544;-81
2022/07/01 06:47:49;;;;;;;8.45;4.90;;;;;;;26.34;52.01;100704.75;1725895;82;21037;-81
2022/07/01 06:50:16;;;;;;;7.40;4.60;;;;;;;26.36;51.94;100706.58;1716243;82;21589;-80
2022/07/01 06:52:42;;;;;;;6.75;4.40;;;;;;;26.39;51.88;100702.86;1718655;82;21153;-81
2022/07/01 06:55:09;;;;;;;6.83;4.55;;;;;;;26.40;51.78;100708.64;1717625;81;21060;-81
2022/07/01 06:57:35;;;;;;;8.30;4.70;;;;;;;26.40;51.73;100698.30;1747301;81;21086;-81
2022/07/01 07:00:03;;;;;;;6.20;4.10;;;;;;;26.42;51.70;100695.16;1723075;81;21546;-80
2022/07/01 07:02:29;;;;;;;6.28;4.72;;;;;;;26.44;51.67;100695.63;1710849;82;21050;-81
2022/07/01 07:05:00;;;;;;;6.22;5.28;;;;;;;26.46;51.60;100690.48;1723898;81;21677;-81
2022/07/01 07:07:26;;;;;;;;;;;;;;;26.47;51.59;100687.92;1725072;81;21103;-81
2022/07/01 07:09:52;;;;;;;8.53;4.67;;;;;;;26.47;51.58;100687.92;1745327;81;20213;-81
2022/07/01 07:12:19;;;;;;;8.13;5.20;;;;;;;26.47;51.50;100685.95;1723348;81;21519;-81
2022/07/01 07:14:45;;;;;;;9.85;5.12;;;;;;;26.48;51.49;100686.77;1730671;81;21075;-81
2022/07/01 07:17:12;;;;;;;6.70;4.80;;;;;;;26.50;51.51;100688.59;1722234;82;21102;-80
2022/07/01 07:19:38;;;;;;;8.45;4.83;;;;;;;26.51;51.48;100679.05;1722331;82;21085;-80
2022/07/01 07:22:06;;;;;;;7.35;5.17;;;;;;;26.53;51.48;100673.91;1732882;81;21053;-79
2022/07/01 07:24:32;;;;;;;8.58;5.08;;;;;;;26.55;51.48;100677.16;1732069;82;21083;-81
2022/07/01 07:26:59;;;;;;;8.40;4.80;;;;;;;26.58;51.47;100672.24;1722500;82;21167;-81
2022/07/01 07:29:26;;;;;;;6.50;4.65;;;;;;;26.63;51.37;100683.14;1704305;82;21957;-81
2022/07/01 07:31:52;;;;;;;7.55;4.62;;;;;;;26.64;51.31;100684.18;1723727;82;21057;-81
2022/07/01 07:34:19;;;;;;;6.62;4.83;;;;;;;26.65;51.21;100678.02;1730528;81;21029;-81
2022/07/01 07:36:46;;;;;;;6.33;4.80;;;;;;;26.67;51.10;100679.84;1724270;81;21048;-81
2022/07/01 07:39:12;;;;;;;9.15;5.10;;;;;;;26.68;50.99;100675.31;1729931;81;21855;-80
2022/07/01 07:41:39;;;;;;;8.88;5.03;;;;;;;26.70;50.88;100671.55;1731133;81;21902;-80
2022/07/01 07:44:05;;;;;;;7.95;4.40;;;;;;;26.72;50.81;100668.41;1728395;82;21046;-80
2022/07/01 07:46:31;;;;;;;5.30;4.80;;;;;;;26.73;50.75;100671.44;1739913;81;21134;-80
2022/07/01 07:48:58;;;;;;;6.53;4.47;;;;;;;26.74;50.68;100672.45;1725636;82;21085;-81
2022/07/01 07:51:30;;;;;;;11.55;4.78;;;;;;;26.76;50.63;100666.52;1724537;81;21088;-79
2022/07/01 07:53:57;;;;;;;10.18;4.92;;;;;;;26.76;50.66;100667.33;1713414;82;21160;-80
2022/07/01 07:56:25;;;;;;;7.05;5.28;;;;;;;26.79;50.68;100668.57;1729990;82;21070;-81
2022/07/01 07:58:51;;;;;;;8.15;4.78;;;;;;;26.81;50.66;100669.03;1720231;81;21335;-80
2022/07/01 08:01:18;;;;;;;6.95;3.95;;;;;;;26.81;50.59;100669.03;1742355;81;21614;-81
2022/07/01 08:03:50;;;;;;;5.42;3.75;;;;;;;26.83;50.45;100663.30;1733503;81;21567;-80
2022/07/01 08:06:17;;;;;;;7.90;3.92;;;;;;;26.87;50.19;100663.98;1749678;81;21184;-81
2022/07/01 08:08:43;;;;;;;7.55;3.87;;;;;;;26.89;49.98;100668.05;1746166;81;21065;-80
2022/07/01 08:11:10;;;;;;;7.25;3.62;;;;;;;26.90;49.80;100664.09;1696439;82;21183;-80
2022/07/01 08:13:36;;;;;;;10.88;4.05;;;;;;;26.93;49.70;100663.36;1728572;81;21108;-79
2022/07/01 08:16:03;;;;;;;5.65;4.08;;;;;;;26.95;49.62;100666.58;1730770;81;21572;-81
2022/07/01 08:18:30;;;;;;;8.53;4.20;;;;;;;26.98;49.55;100667.27;1725098;82;22040;-81
2022/07/01 08:20:56;;;;;;;4.85;3.65;;;;;;;26.99;49.46;100663.28;1724579;81;21128;-81
2022/07/01 08:23:29;;;;;;;5.15;3.55;;;;;;;27.00;49.42;100664.91;1724729;82;21111;-81
2022/07/01 08:25:55;;;;;;;8.80;3.85;;;;;;;27.01;49.38;100659.55;1751223;81;21076;-81
2022/07/01 08:28:21;;;;;;;6.92;4.00;;;;;;;27.03;49.33;100664.16;1746717;81;21081;-81
2022/07/01 08:30:48;;;;;;;5.65;4.30;;;;;;;27.04;49.29;100669.98;1731885;81;21008;-81
2022/07/01 08:33:16;;;;;;;4.37;3.80;;;;;;;27.05;49.23;100664.63;1711578;82;21059;-80
2022/07/01 08:35:43;;;;;;;5.75;3.95;;;;;;;27.07;49.13;100662.88;1708323;82;21522;-80
2022/07/01 08:38:09;;;;;;;6.83;3.70;;;;;;;27.08;49.02;100662.48;1721648;82;21069;-81
2022/07/01 08:40:36;;;;;;;4.92;4.15;;;;;;;27.10;48.91;100659.34;1721306;81;21087;-80
2022/07/01 08:43:05;;;;;;;5.78;3.95;;;;;;;27.11;48.78;100663.17;1745685;81;21103;-80
2022/07/01 08:45:34;;;;;;;4.22;3.55;;;;;;;27.12;48.68;100657.79;1739468;81;21078;-80
2022/07/01 08:48:02;;;;;;;5.50;4.20;;;;;;;27.16;48.59;100665.66;1724159;81;21362;-80
2022/07/01 08:50:34;;;;;;;8.23;3.75;;;;;;;27.16;48.46;100661.47;1726349;81;22050;-80
2022/07/01 08:53:01;;;;;;;6.62;4.15;;;;;;;27.19;48.38;100666.93;1743579;80;21103;-81
2022/07/01 08:55:27;;;;;;;6.35;3.83;;;;;;;27.21;48.27;100670.96;1725053;82;21161;-81
2022/07/01 08:57:55;;;;;;;7.37;3.80;;;;;;;27.22;48.17;100662.81;1729821;82;21097;-80
2022/07/01 09:00:22;;;;;;;9.35;3.65;;;;;;;27.23;48.04;100659.44;1714677;81;21041;-80
2022/07/01 09:02:51;;;;;;;7.33;3.90;;;;;;;27.24;47.91;100661.06;1723291;81;21061;-80
2022/07/01 09:05:18;;;;;;;5.00;3.75;;;;;;;27.26;47.81;100673.47;1733164;82;20879;-79
2022/07/01 09:07:46;;;;;;;6.85;3.40;;;;;;;27.28;47.72;100662.53;1704408;82;20965;-79
2022/07/01 09:10:18;;;;;;;7.67;3.60;;;;;;;27.28;47.69;100661.13;1698806;82;21006;-78
2022/07/01 09:12:45;;;;;;;5.25;3.90;;;;;;;27.29;47.70;100656.55;1717203;82;20947;-78
2022/07/01 09:15:25;;;;;;;5.45;4.00;;;;;;;27.31;47.68;100661.20;1711012;82;21155;-80
2022/07/01 09:17:55;;;;;;;8.78;4.10;;;;;;;27.34;47.65;100662.44;1713914;82;21124;-80
2022/07/01 09:20:28;;;;;;;6.05;3.47;;;;;;;27.35;47.60;100661.27;1722109;82;21020;-79
2022/07/01 09:23:05;;;;;;;6.75;3.92;;;;;;;27.37;47.48;100663.13;1725545;82;21088;-80
2022/07/01 09:25:45;;;;;;;4.97;3.58;;;;;;;27.39;47.43;100659.36;1732190;82;21044;-81
2022/07/01 09:28:19;;;;;;;10.03;3.77;;;;;;;27.40;47.37;100658.19;1723181;82;21029;-81
2022/07/01 09:30:49;;;;;;;7.72;4.22;;;;;;;27.42;47.33;100661.41;1718674;82;21085;-81
2022/07/01 09:33:27;;;;;;;5.75;3.87;;;;;;;27.44;47.30;100663.27;1716613;82;21701;-80
2022/07/01 09:35:53;;;;;;;5.83;3.58;;;;;;;27.44;47.21;100662.67;1720946;82;20910;-80
2022/07/01 09:38:21;;;;;;;9.98;3.67;;;;;;;27.48;47.13;100671.16;1732028;82;20999;-80
2022/07/01 09:40:54;;;;;;;6.70;3.87;;;;;;;27.49;47.05;100660.20;1729097;82;20950;-81
2022/07/01 09:43:31;;;;;;;5.62;3.65;;;;;;;27.50;46.95;100654.23;1734978;81;20978;-81
2022/07/01 09:46:00;;;;;;;5.75;3.70;;;;;;;27.53;46.88;100655.50;1727561;82;21102;-81
2022/07/01 09:48:38;;;;;;;6.78;4.10;;;;;;;27.54;46.86;100652.94;1718641;82;20959;-81
2022/07/01 09:51:06;;;;;;;5.78;4.10;;;;;;;27.56;46.80;100651.96;1722020;82;20949;-81
2022/07/01 09:53:33;;;;;;;10.50;4.30;;;;;;;27.56;46.78;100644.97;1719263;82;20985;-81
2022/07/01 09:55:59;;;;;;;10.05;3.77;;;;;;;27.58;46.71;100644.81;1716674;82;21147;-81
2022/07/01 09:58:26;;;;;;;5.50;3.37;;;;;;;27.60;46.66;100642.47;1715902;83;21125;-81
2022/07/01 10:00:53;;;;;;;8.68;3.85;;;;;;;27.62;46.54;100642.11;1689251;84;21051;-81
2022/07/01 10:03:20;;;;;;;9.53;3.85;;;;;;;27.63;46.38;100643.70;1710275;82;21092;-81
2022/07/01 10:05:54;;;;;;;5.35;3.55;;;;;;;27.65;46.32;100644.16;1711558;81;21477;-82
2022/07/01 10:08:52;;;;;;;7.90;3.92;;;;;;;27.67;46.26;100645.39;1671568;84;21072;-81
2022/07/01 10:11:54;;;;;;;6.87;3.67;;;;;;;27.68;46.19;100640.62;1672417;84;21423;-82
2022/07/01 10:14:20;;;;;;;4.83;3.15;;;;;;;27.69;46.01;100643.64;1715658;81;21022;-81
2022/07/01 10:16:50;;;;;;;4.50;3.58;;;;;;;27.70;45.92;100639.67;1678940;84;21108;-81
2022/07/01 10:19:29;;;;;;;5.92;4.00;;;;;;;27.73;45.86;100638.11;1671260;84;21125;-81
2022/07/01 10:22:22;;;;;;;6.12;3.35;;;;;;;27.75;45.76;100630.17;1664497;85;21064;-80
2022/07/01 10:24:49;;;;;;;8.50;3.55;;;;;;;27.74;45.64;100634.14;1710295;83;21321;-80
2022/07/01 10:27:23;;;;;;;4.62;3.60;;;;;;;27.76;45.52;100630.37;1707433;83;21153;-80
2022/07/01 10:30:10;;;;;;;7.78;3.83;;;;;;;27.78;45.38;100629.43;1682816;82;21084;-80
2022/07/01 10:32:47;;;;;;;6.22;3.60;;;;;;;27.79;45.27;100629.06;1696025;82;21677;-80
2022/07/01 10:35:15;;;;;;;6.65;3.40;;;;;;;27.80;45.25;100626.47;1720477;82;36750;-79
2022/07/01 10:38:05;;;;;;;6.10;3.45;;;;;;;27.81;45.24;100623.90;1722773;82;21158;-80
2022/07/01 10:40:46;;;;;;;5.72;3.33;;;;;;;27.82;45.03;100624.13;1711053;82;21622;-80
2022/07/01 10:43:18;;;;;;;8.33;3.90;;;;;;;27.85;44.91;100621.97;1707520;83;21120;-80
2022/07/01 10:45:44;;;;;;;4.85;3.20;;;;;;;27.87;44.81;100628.02;1693520;83;21117;-79
2022/07/01 10:48:21;;;;;;;7.22;3.17;;;;;;;27.89;44.65;100622.84;1693455;84;21632;-80
2022/07/01 10:50:48;;;;;;;6.58;3.83;;;;;;;27.90;44.60;100616.08;1679296;83;21609;-80
2022/07/01 10:53:14;;;;;;;4.08;3.10;;;;;;;27.93;44.48;100611.72;1676542;83;21035;-79
2022/07/01 10:55:47;;;;;;;8.15;3.10;;;;;;;27.94;44.37;100616.95;1698656;82;21029;-80
2022/07/01 10:58:15;;;;;;;4.40;3.10;;;;;;;27.96;44.29;100610.41;1741038;81;21533;-81
2022/07/01 11:00:43;;;;;;;5.20;3.00;;;;;;;27.95;44.24;100607.39;1738100;82;21039;-79
2022/07/01 11:03:13;;;;;;;5.60;3.10;;;;;;;27.96;44.23;100604.81;1724410;81;21155;-80
2022/07/01 11:05:42;;;;;;;6.83;3.25;;;;;;;27.98;44.15;100601.62;1734312;81;21566;-79
2022/07/01 11:08:08;;;;;;;5.97;3.30;;;;;;;27.98;44.06;100596.84;1742474;81;21017;-79
2022/07/01 11:10:35;;;;;;;6.15;3.05;;;;;;;28.00;43.92;100593.69;1750139;80;21051;-79
2022/07/01 11:13:01;;;;;;;7.78;3.40;;;;;;;28.02;43.81;100599.11;1750832;81;22079;-79
2022/07/01 11:15:31;;;;;;;5.33;3.00;;;;;;;28.03;43.78;100590.95;1745879;81;21121;-80
2022/07/01 11:17:58;;;;;;;9.38;2.95;;;;;;;28.05;43.64;100596.95;1762959;80;21297;-80
2022/07/01 11:20:26;;;;;;;5.87;2.90;;;;;;;28.05;43.48;100589.97;1731167;81;21611;-79
2022/07/01 11:22:52;;;;;;;5.72;2.80;;;;;;;28.04;43.36;100585.58;1736060;81;21056;-80
2022/07/01 11:25:20;;;;;;;8.35;3.08;;;;;;;28.06;43.34;100585.19;1733646;82;21009;-80
2022/07/01 11:27:48;;;;;;;6.15;3.00;;;;;;;28.06;43.38;100584.59;1681988;82;21706;-81
2022/07/01 11:30:15;;;;;;;8.88;3.17;;;;;;;28.08;43.27;100587.03;1686404;82;21116;-82
2022/07/01 11:32:50;;;;;;;8.48;3.27;;;;;;;28.10;43.22;100580.48;1743325;81;21080;-81
2022/07/01 11:41:07;;;;;;;6.17;3.05;;;;;;;28.15;42.96;100580.18;1729811;81;20968;-82